Time;durP1;ratioP1;P1;durP2;ratioP2;P2;SDS_P1;SDS_P2;PMS_P1;PMS_P2;Temp;Humidity;BMP_temperature;BMP_pressure;BME280_temperature;BME280_humidity;BME280_pressure;Samples;Min_cycle;Max_cycle;Signal;HPM_P1;HPM_P2
2022/10/09 00:01:14;;;;;;;10.03;3.65;;;;;;;12.95;85.16;101083.67;1684320;84;27483;-82
2022/10/09 00:03:44;;;;;;;9.00;3.90;;;;;;;12.94;85.28;101083.34;1689495;84;25898;-82
2022/10/09 00:06:15;;;;;;;7.08;3.40;;;;;;;12.92;85.35;101081.36;1687095;84;25334;-82
2022/10/09 00:08:42;;;;;;;7.80;3.62;;;;;;;12.89;85.29;101086.29;1678257;84;26403;-82
2022/10/09 00:11:17;;;;;;;8.33;3.87;;;;;;;12.87;85.42;101084.30;1685782;84;26324;-83
2022/10/09 00:13:44;;;;;;;7.45;4.03;;;;;;;12.90;85.50;101087.44;1680744;84;28324;-81
2022/10/09 00:16:12;;;;;;;9.70;4.37;;;;;;;12.94;85.41;101091.91;1689489;84;25879;-82
2022/10/09 00:18:40;;;;;;;7.90;4.37;;;;;;;12.96;85.35;101093.39;1686412;84;25968;-82
2022/10/09 00:21:21;;;;;;;6.28;3.47;;;;;;;12.99;85.18;101094.37;1687131;84;25762;-82
2022/10/09 00:23:49;;;;;;;8.23;4.08;;;;;;;12.98;84.91;101099.95;1676635;84;25333;-83
2022/10/09 00:26:16;;;;;;;6.85;3.35;;;;;;;12.96;84.76;101102.80;1674431;84;28312;-83
2022/10/09 00:28:42;;;;;;;7.28;3.40;;;;;;;12.95;84.47;101104.34;1682837;84;26522;-83
2022/10/09 00:31:10;;;;;;;9.53;3.80;;;;;;;12.88;84.11;101103.42;1680151;84;26192;-83
2022/10/09 00:33:37;;;;;;;5.85;3.27;;;;;;;12.81;84.13;101106.57;1676719;84;25782;-82
2022/10/09 00:36:11;;;;;;;9.30;3.35;;;;;;;12.76;84.07;101111.17;1677813;84;25298;-83
2022/10/09 00:38:38;;;;;;;4.97;2.87;;;;;;;12.70;83.92;101111.08;1672515;84;27095;-83
2022/10/09 00:41:05;;;;;;;9.58;3.85;;;;;;;12.62;83.93;101112.51;1679435;84;25873;-83
2022/10/09 00:43:48;;;;;;;7.70;4.10;;;;;;;12.55;84.00;101110.27;1692492;84;25734;-83
2022/10/09 00:46:35;;;;;;;10.23;3.70;;;;;;;12.49;84.10;101117.73;1676936;84;26537;-83
2022/10/09 00:49:10;;;;;;;8.28;3.77;;;;;;;12.43;84.34;101115.27;1652892;85;25798;-82
2022/10/09 00:51:37;;;;;;;9.90;4.40;;;;;;;12.41;84.31;101115.97;1681834;84;28310;-82
2022/10/09 00:54:08;;;;;;;19.00;9.70;;;;;;;12.38;84.26;101123.07;1673383;84;25766;-82
2022/10/09 00:56:34;;;;;;;8.43;4.92;;;;;;;12.36;84.25;101129.95;1684704;84;25956;-82
2022/10/09 00:59:03;;;;;;;10.90;5.03;;;;;;;12.35;84.20;101130.15;1683816;84;25798;-83
2022/10/09 01:01:29;;;;;;;14.33;4.50;;;;;;;12.30;84.29;101126.67;1672991;84;25351;-83
2022/10/09 01:03:55;;;;;;;10.18;6.10;;;;;;;12.27;84.16;101132.40;1682436;84;28261;-83
2022/10/09 01:06:30;;;;;;;6.97;4.20;;;;;;;12.22;84.07;101133.48;1690546;84;25356;-82
2022/10/09 01:09:13;;;;;;;8.73;4.15;;;;;;;12.18;84.09;101134.03;1676144;84;25755;-82
2022/10/09 01:12:00;;;;;;;9.18;4.72;;;;;;;12.15;84.17;101136.56;1677340;84;26688;-82
2022/10/09 01:14:33;;;;;;;13.03;4.45;;;;;;;12.10;84.07;101136.27;1616098;86;26050;-82
2022/10/09 01:17:20;;;;;;;7.55;4.20;;;;;;;12.06;84.09;101137.66;1681689;84;28316;-83
2022/10/09 01:20:26;;;;;;;9.08;4.95;;;;;;;12.02;84.20;101140.39;1654260;84;26043;-81
2022/10/09 01:23:21;;;;;;;7.42;4.30;;;;;;;11.99;84.19;101137.25;1645885;84;25839;-83
2022/10/09 01:26:25;;;;;;;11.43;4.60;;;;;;;11.92;84.16;101141.67;1686568;84;25861;-83
2022/10/09 01:28:59;;;;;;;6.22;4.03;;;;;;;11.90;84.35;101145.05;1693292;84;25992;-82
2022/10/09 01:31:29;;;;;;;8.43;4.55;;;;;;;11.87;84.33;101139.52;1674302;84;28270;-82
2022/10/09 01:33:58;;;;;;;8.33;4.67;;;;;;;11.86;84.32;101140.56;1691417;84;25837;-82
2022/10/09 01:36:28;;;;;;;8.25;4.62;;;;;;;11.85;84.26;101143.41;1649155;85;25896;-82
2022/10/09 01:38:58;;;;;;;10.90;5.00;;;;;;;11.82;84.22;101148.66;1686107;84;25909;-81
2022/10/09 01:41:26;;;;;;;9.08;4.47;;;;;;;11.78;84.20;101146.51;1684487;84;25815;-81
2022/10/09 01:43:52;;;;;;;10.85;5.10;;;;;;;11.77;84.31;101153.72;1650278;85;28044;-82
2022/10/09 01:46:28;;;;;;;7.20;5.10;;;;;;;11.77;84.32;101150.19;1680917;84;26406;-82
2022/10/09 01:49:09;;;;;;;14.05;5.08;;;;;;;11.73;84.29;101152.41;1678744;84;25497;-82
2022/10/09 01:51:43;;;;;;;8.85;5.60;;;;;;;11.68;84.24;101157.48;1674001;84;25841;-82
2022/10/09 01:54:13;;;;;;;12.63;5.83;;;;;;;11.64;84.40;101162.84;1690507;84;25769;-83
2022/10/09 01:56:42;;;;;;;9.43;5.15;;;;;;;11.63;84.54;101165.22;1647862;85;28291;-84
2022/10/09 01:59:12;;;;;;;8.08;5.28;;;;;;;11.63;84.55;101165.22;1677209;84;26414;-84
2022/10/09 02:01:41;;;;;;;10.20;5.07;;;;;;;11.61;84.40;101160.55;1687379;84;25811;-82
2022/10/09 02:04:11;;;;;;;8.78;5.30;;;;;;;11.54;84.35;101166.29;1637099;86;25849;-82
2022/10/09 02:06:40;;;;;;;10.88;5.45;;;;;;;11.51;84.51;101167.98;1629698;87;25760;-81
2022/10/09 02:09:12;;;;;;;11.65;4.75;;;;;;;11.49;84.66;101170.84;1636593;86;28298;-80
2022/10/09 02:11:42;;;;;;;12.78;5.33;;;;;;;11.48;84.79;101172.37;1644592;86;26070;-82
2022/10/09 02:14:09;;;;;;;9.23;5.15;;;;;;;11.44;84.74;101169.20;1681334;84;25881;-83
2022/10/09 02:16:42;;;;;;;8.35;4.83;;;;;;;11.44;84.78;101176.44;1683510;84;25915;-81
2022/10/09 02:19:26;;;;;;;8.58;5.50;;;;;;;11.43;84.62;101180.95;1695323;84;25912;-82
2022/10/09 02:22:18;;;;;;;11.20;4.92;;;;;;;11.40;84.74;101187.16;1671437;84;28337;-81
2022/10/09 02:24:45;;;;;;;8.98;5.20;;;;;;;11.38;84.63;101190.53;1676145;84;25940;-82
2022/10/09 02:27:14;;;;;;;8.60;5.53;;;;;;;11.33;84.63;101187.56;1653675;85;25324;-81
2022/10/09 02:29:43;;;;;;;7.35;5.28;;;;;;;11.28;84.70;101194.80;1683157;84;25785;-82
2022/10/09 02:32:10;;;;;;;10.88;5.53;;;;;;;11.26;84.73;101197.32;1658421;85;25970;-82
2022/10/09 02:34:37;;;;;;;8.43;4.97;;;;;;;11.24;84.77;101198.84;1648418;85;28289;-82
2022/10/09 02:37:05;;;;;;;7.97;5.58;;;;;;;11.23;84.64;101204.36;1675928;84;25850;-81
2022/10/09 02:39:31;;;;;;;9.43;5.47;;;;;;;11.18;84.82;101206.27;1691609;84;25786;-81
2022/10/09 02:41:58;;;;;;;9.23;5.83;;;;;;;11.16;84.86;101209.59;1677355;84;25872;-82
2022/10/09 02:44:24;;;;;;;12.58;5.55;;;;;;;11.14;84.92;101206.25;1685696;84;26419;-82
2022/10/09 02:46:51;;;;;;;10.65;5.45;;;;;;;11.14;85.18;101210.80;1685750;84;28317;-81
2022/10/09 02:49:18;;;;;;;8.55;5.00;;;;;;;11.12;84.94;101219.53;1649879;86;25818;-81
2022/10/09 02:51:44;;;;;;;13.05;5.40;;;;;;;11.10;85.04;101225.58;1629321;87;25786;-81
2022/10/09 02:54:11;;;;;;;8.15;5.33;;;;;;;11.06;85.08;101224.23;1675595;84;26590;-81
2022/10/09 02:56:37;;;;;;;8.85;5.55;;;;;;;11.06;85.06;101232.27;1690696;84;25981;-82
2022/10/09 02:59:04;;;;;;;10.03;5.70;;;;;;;11.02;85.05;101230.95;1687455;84;27106;-82
2022/10/09 03:01:30;;;;;;;6.17;4.85;;;;;;;10.99;85.03;101234.00;1672928;84;25312;-82
2022/10/09 03:03:56;;;;;;;6.97;4.47;;;;;;;10.92;85.05;101235.19;1686986;84;25875;-82
2022/10/09 03:06:25;;;;;;;8.58;4.78;;;;;;;10.84;85.15;101244.08;1671123;84;27014;-82
2022/10/09 03:08:52;;;;;;;10.75;4.87;;;;;;;10.79;85.34;101241.11;1687931;84;25778;-82
2022/10/09 03:11:21;;;;;;;10.45;4.58;;;;;;;10.78;85.73;101242.59;1683827;84;27602;-82
2022/10/09 03:13:49;;;;;;;7.30;5.03;;;;;;;10.71;86.12;101240.30;1683972;84;26391;-81
2022/10/09 03:16:20;;;;;;;8.08;4.83;;;;;;;10.68;86.37;101244.64;1678008;84;25817;-81
2022/10/09 03:18:47;;;;;;;11.45;5.08;;;;;;;10.67;86.69;101243.80;1687105;84;25827;-82
2022/10/09 03:21:21;;;;;;;7.90;4.60;;;;;;;10.65;86.89;101250.33;1654567;85;25789;-81
2022/10/09 03:23:48;;;;;;;10.20;4.87;;;;;;;10.62;87.07;101252.03;1673837;84;27494;-81
2022/10/09 03:26:19;;;;;;;7.55;4.35;;;;;;;10.59;87.20;101250.52;1688479;84;25320;-81
2022/10/09 03:28:48;;;;;;;7.30;5.37;;;;;;;10.51;87.29;101255.06;1684284;84;25989;-81
2022/10/09 03:31:17;;;;;;;7.80;4.05;;;;;;;10.47;87.57;101254.58;1678731;84;26802;-81
2022/10/09 03:33:44;;;;;;;8.95;5.05;;;;;;;10.42;87.80;101264.11;1680395;84;25385;-82
2022/10/09 03:36:10;;;;;;;10.30;4.50;;;;;;;10.37;88.12;101257.11;1677007;84;27476;-82
2022/10/09 03:38:38;;;;;;;8.10;5.00;;;;;;;10.40;88.48;101257.59;1689446;83;26159;-82
2022/10/09 03:41:05;;;;;;;9.05;5.33;;;;;;;10.43;88.76;101272.49;1681090;84;25813;-82
2022/10/09 03:43:32;;;;;;;14.50;6.35;;;;;;;10.46;88.87;101271.64;1687651;84;26388;-82
2022/10/09 03:46:01;;;;;;;8.33;5.45;;;;;;;10.46;89.05;101267.63;1675763;84;25954;-82
2022/10/09 03:48:27;;;;;;;8.45;4.40;;;;;;;10.48;89.30;101266.95;1620170;86;28280;-82
2022/10/09 03:50:53;;;;;;;11.45;4.67;;;;;;;10.56;89.34;101274.16;1648520;85;25793;-81
2022/10/09 03:53:19;;;;;;;12.75;5.50;;;;;;;10.56;89.28;101271.47;1628440;85;25943;-82
2022/10/09 03:55:46;;;;;;;13.60;6.35;;;;;;;10.58;89.49;101282.36;1682378;84;25990;-81
2022/10/09 03:58:12;;;;;;;6.30;4.55;;;;;;;10.61;89.59;101280.66;1677551;84;26463;-82
2022/10/09 04:00:38;;;;;;;10.80;5.30;;;;;;;10.64;89.63;101287.03;1669739;84;27026;-82
2022/10/09 04:03:05;;;;;;;8.38;4.10;;;;;;;10.62;89.50;101289.54;1686607;84;25574;-81
2022/10/09 04:05:34;;;;;;;6.95;4.33;;;;;;;10.61;89.70;101294.05;1691090;83;25775;-82
2022/10/09 04:08:01;;;;;;;8.63;4.75;;;;;;;10.62;89.68;101294.90;1690205;84;26580;-81
2022/10/09 04:10:27;;;;;;;6.87;4.67;;;;;;;10.59;89.56;101292.05;1688283;84;25865;-81
2022/10/09 04:12:53;;;;;;;8.88;5.10;;;;;;;10.54;89.66;101299.75;1691354;83;28084;-81
2022/10/09 04:15:19;;;;;;;8.00;5.20;;;;;;;10.49;89.73;101294.58;1690570;83;26039;-81
2022/10/09 04:17:46;;;;;;;6.92;4.60;;;;;;;10.46;89.88;101299.77;1691685;84;25340;-81
2022/10/09 04:20:12;;;;;;;5.47;3.90;;;;;;;10.48;90.15;101297.75;1689424;84;25934;-81
2022/10/09 04:22:38;;;;;;;5.47;4.33;;;;;;;10.50;90.21;101307.80;1605096;87;25420;-82
2022/10/09 04:25:05;;;;;;;9.05;4.47;;;;;;;10.49;90.24;101304.80;1663330;85;28809;-81
2022/10/09 04:27:31;;;;;;;11.00;4.30;;;;;;;10.50;90.23;101297.08;1653425;85;25803;-82
2022/10/09 04:29:58;;;;;;;12.95;5.22;;;;;;;10.48;90.17;101310.30;1658359;86;25792;-82
2022/10/09 04:32:24;;;;;;;7.97;4.72;;;;;;;10.47;90.31;101315.34;1643236;85;25809;-82
2022/10/09 04:34:50;;;;;;;11.00;5.87;;;;;;;10.46;90.37;101321.19;1654293;85;25881;-82
2022/10/09 04:37:17;;;;;;;6.83;4.75;;;;;;;10.46;90.42;101321.69;1662121;85;27429;-82
2022/10/09 04:39:43;;;;;;;7.90;4.87;;;;;;;10.47;90.45;101324.22;1667169;85;25879;-82
2022/10/09 04:42:09;;;;;;;10.15;4.97;;;;;;;10.50;90.30;101328.41;1670479;84;25555;-81
2022/10/09 04:44:36;;;;;;;10.48;5.30;;;;;;;10.49;90.33;101328.06;1669065;84;25853;-82
2022/10/09 04:47:02;;;;;;;8.55;5.67;;;;;;;10.47;90.35;101330.92;1660550;84;26031;-81
2022/10/09 04:49:28;;;;;;;7.22;4.92;;;;;;;10.48;90.11;101337.09;1658121;84;28286;-83
2022/10/09 04:51:54;;;;;;;8.23;5.47;;;;;;;10.47;90.22;101338.11;1666855;84;25946;-81
2022/10/09 04:54:21;;;;;;;8.45;5.47;;;;;;;10.44;90.16;101343.78;1651197;84;26418;-81
2022/10/09 04:56:48;;;;;;;8.03;5.87;;;;;;;10.41;90.35;101348.16;1656525;85;26200;-82
2022/10/09 04:59:14;;;;;;;10.53;7.03;;;;;;;10.40;90.34;101354.01;1662179;84;25790;-81
2022/10/09 05:01:40;;;;;;;8.95;5.67;;;;;;;10.39;90.38;101355.00;1688664;83;28281;-82
2022/10/09 05:04:07;;;;;;;8.45;5.72;;;;;;;10.38;90.42;101359.19;1664119;84;26010;-82
2022/10/09 05:06:34;;;;;;;9.85;6.42;;;;;;;10.39;90.34;101354.19;1646001;86;25954;-81
2022/10/09 05:09:00;;;;;;;11.75;5.45;;;;;;;10.34;90.35;101366.73;1627040;87;25848;-82
2022/10/09 05:11:27;;;;;;;10.85;6.03;;;;;;;10.34;90.40;101371.24;1693243;84;25815;-82
2022/10/09 05:13:55;;;;;;;6.60;4.75;;;;;;;10.29;90.49;101375.75;1682383;83;27537;-81
2022/10/09 05:16:26;;;;;;;8.03;5.30;;;;;;;10.31;90.62;101370.26;1675273;84;25826;-82
2022/10/09 05:18:55;;;;;;;7.65;4.87;;;;;;;10.31;90.64;101377.77;1679672;84;25831;-82
2022/10/09 05:21:24;;;;;;;7.37;5.10;;;;;;;10.29;90.62;101383.78;1679571;84;26157;-82
2022/10/09 05:23:53;;;;;;;9.90;5.47;;;;;;;10.30;90.69;101381.95;1632211;86;26121;-82
2022/10/09 05:26:22;;;;;;;8.65;5.12;;;;;;;10.28;90.65;101392.84;1688281;84;27458;-83
2022/10/09 05:28:49;;;;;;;9.15;5.50;;;;;;;10.27;90.84;101399.68;1675364;84;25740;-83
2022/10/09 05:31:23;;;;;;;12.45;6.20;;;;;;;10.29;90.75;101404.36;1682521;84;25875;-84
2022/10/09 05:33:49;;;;;;;10.88;6.12;;;;;;;10.24;90.22;101403.55;1699772;83;25770;-83
2022/10/09 05:36:16;;;;;;;8.40;5.33;;;;;;;10.16;90.42;101404.84;1686496;84;25944;-83
2022/10/09 05:38:45;;;;;;;9.45;6.12;;;;;;;10.18;90.69;101408.72;1683638;84;27466;-83
2022/10/09 05:41:14;;;;;;;7.22;5.75;;;;;;;10.19;90.78;101404.53;1674294;84;26417;-83
2022/10/09 05:43:44;;;;;;;7.50;6.28;;;;;;;10.22;90.87;101414.08;1679774;84;25951;-82
2022/10/09 05:46:22;;;;;;;9.38;6.62;;;;;;;10.23;90.85;101421.94;1690041;84;26565;-83
2022/10/09 05:48:55;;;;;;;14.70;7.25;;;;;;;10.24;90.76;101416.94;1677316;84;25777;-83
2022/10/09 05:51:26;;;;;;;9.10;5.70;;;;;;;10.22;90.84;101420.28;1675669;84;27506;-82
2022/10/09 05:53:54;;;;;;;11.35;6.35;;;;;;;10.25;90.99;101418.59;1680483;84;25932;-82
2022/10/09 05:56:27;;;;;;;13.62;7.22;;;;;;;10.27;91.12;101423.77;1681859;84;26399;-83
2022/10/09 05:59:01;;;;;;;7.70;6.17;;;;;;;10.30;90.98;101435.52;1677847;84;26694;-83
2022/10/09 06:01:32;;;;;;;8.65;6.97;;;;;;;10.30;90.93;101436.84;1669275;84;25815;-83
2022/10/09 06:04:00;;;;;;;11.12;7.37;;;;;;;10.32;91.02;101447.73;1672897;84;28402;-83
2022/10/09 06:06:31;;;;;;;11.15;6.97;;;;;;;10.30;90.81;101445.73;1677870;84;25869;-82
2022/10/09 06:08:58;;;;;;;9.85;6.83;;;;;;;10.31;90.98;101450.06;1679798;84;25819;-82
2022/10/09 06:11:30;;;;;;;12.75;7.33;;;;;;;10.33;90.67;101452.60;1675353;84;25822;-82
2022/10/09 06:13:58;;;;;;;10.38;6.87;;;;;;;10.29;90.62;101452.07;1647189;85;25811;-83
2022/10/09 06:16:29;;;;;;;13.05;7.78;;;;;;;10.27;90.63;101461.27;1681400;84;28370;-82
2022/10/09 06:18:56;;;;;;;11.78;7.67;;;;;;;10.27;90.66;101466.12;1684608;84;26345;-82
2022/10/09 06:21:24;;;;;;;9.90;7.55;;;;;;;10.27;90.69;101462.60;1686556;84;26217;-83
2022/10/09 06:23:54;;;;;;;8.60;7.72;;;;;;;10.29;90.76;101467.29;1684676;84;26011;-83
2022/10/09 06:26:22;;;;;;;11.18;7.20;;;;;;;10.29;90.72;101469.97;1681609;84;26409;-82
2022/10/09 06:28:49;;;;;;;14.43;7.45;;;;;;;10.29;90.82;101470.81;1678755;84;27475;-84
2022/10/09 06:31:20;;;;;;;8.53;6.80;;;;;;;10.31;90.78;101474.69;1683685;84;25967;-83
2022/10/09 06:33:48;;;;;;;10.13;7.30;;;;;;;10.32;90.86;101475.86;1676847;84;34977;-84
2022/10/09 06:36:26;;;;;;;11.83;8.00;;;;;;;10.33;90.74;101480.19;1674202;84;25909;-83
2022/10/09 06:38:54;;;;;;;10.95;9.03;;;;;;;10.36;90.73;101485.23;1688553;83;25842;-83
2022/10/09 06:41:24;;;;;;;27.65;16.85;;;;;;;10.36;90.53;101495.95;1688082;84;27586;-82
2022/10/09 06:44:00;;;;;;;13.53;9.25;;;;;;;10.39;90.64;101496.12;1648157;86;25754;-82
2022/10/09 06:46:34;;;;;;;10.82;8.43;;;;;;;10.40;90.71;101495.95;1678015;83;26054;-83
2022/10/09 06:49:02;;;;;;;12.00;8.28;;;;;;;10.44;90.78;101501.81;1687513;83;25927;-82
2022/10/09 06:51:29;;;;;;;14.03;7.30;;;;;;;10.45;90.75;101505.69;1656442;84;26179;-83
2022/10/09 06:53:59;;;;;;;11.18;7.55;;;;;;;10.46;90.58;101511.36;1685326;84;28031;-83
2022/10/09 06:56:29;;;;;;;13.65;7.80;;;;;;;10.47;90.55;101518.41;1691140;84;25986;-83
2022/10/09 06:59:02;;;;;;;10.63;7.08;;;;;;;10.49;90.60;101528.46;1693529;83;25802;-83
2022/10/09 07:01:33;;;;;;;9.50;8.08;;;;;;;10.54;90.57;101527.97;1679937;84;26585;-83
2022/10/09 07:04:06;;;;;;;11.93;7.45;;;;;;;10.53;90.79;101536.50;1686073;83;25941;-82
2022/10/09 07:06:40;;;;;;;12.40;8.08;;;;;;;10.56;91.40;101546.88;1635568;86;27528;-82
2022/10/09 07:09:11;;;;;;;10.43;7.22;;;;;;;10.57;91.15;101543.20;1624012;87;26445;-81
2022/10/09 07:11:42;;;;;;;11.33;7.53;;;;;;;10.61;92.05;101550.41;1683456;84;25805;-81
2022/10/09 07:14:10;;;;;;;10.93;6.83;;;;;;;10.65;92.08;101551.75;1680520;84;26519;-82
2022/10/09 07:16:40;;;;;;;11.35;7.47;;;;;;;10.64;91.90;101556.79;1675169;84;25845;-82
2022/10/09 07:19:09;;;;;;;11.20;8.08;;;;;;;10.66;92.42;101552.95;1681502;84;27454;-81
2022/10/09 07:21:38;;;;;;;10.32;6.78;;;;;;;10.69;92.33;101555.28;1695430;83;26416;-81
2022/10/09 07:24:05;;;;;;;10.45;6.83;;;;;;;10.75;92.25;101558.67;1684336;83;25823;-82
2022/10/09 07:26:35;;;;;;;9.78;7.58;;;;;;;10.76;92.13;101559.48;1682821;83;25793;-83
2022/10/09 07:29:05;;;;;;;15.05;7.30;;;;;;;10.78;91.96;101561.00;1654445;84;25907;-83
2022/10/09 07:31:31;;;;;;;10.30;6.87;;;;;;;10.82;92.02;101560.16;1631811;86;27482;-82
2022/10/09 07:33:57;;;;;;;11.55;7.40;;;;;;;10.86;92.12;101560.20;1681066;84;25862;-82
2022/10/09 07:36:24;;;;;;;11.22;6.92;;;;;;;10.92;92.09;101565.39;1677705;83;25849;-82
2022/10/09 07:38:54;;;;;;;8.05;5.67;;;;;;;10.94;91.74;101572.75;1684757;84;26396;-82
2022/10/09 07:41:22;;;;;;;10.55;6.97;;;;;;;10.91;91.43;101561.02;1692436;83;25323;-82
2022/10/09 07:43:48;;;;;;;13.32;6.55;;;;;;;10.92;91.68;101572.09;1690409;83;27636;-82
2022/10/09 07:46:18;;;;;;;10.35;7.17;;;;;;;10.92;91.22;101580.13;1683701;84;26044;-83
2022/10/09 07:48:45;;;;;;;9.15;7.12;;;;;;;10.92;91.39;101574.77;1689790;83;25475;-82
2022/10/09 07:51:24;;;;;;;10.82;6.35;;;;;;;10.96;91.22;101580.98;1685799;83;25943;-82
2022/10/09 07:53:51;;;;;;;11.12;6.83;;;;;;;10.99;91.05;101583.83;1688280;84;25867;-82
2022/10/09 07:56:22;;;;;;;9.58;7.53;;;;;;;10.95;90.44;101585.17;1690393;84;27469;-82
2022/10/09 07:58:55;;;;;;;10.25;7.50;;;;;;;10.95;90.77;101588.67;1661522;85;25805;-82
2022/10/09 08:01:23;;;;;;;10.25;8.15;;;;;;;11.00;90.87;101586.83;1684074;83;25555;-82
2022/10/09 08:03:50;;;;;;;12.78;7.62;;;;;;;11.04;91.06;101587.69;1688015;84;26576;-82
2022/10/09 08:06:18;;;;;;;12.25;8.00;;;;;;;11.07;90.53;101590.54;1631603;86;25850;-83
2022/10/09 08:08:50;;;;;;;11.83;9.23;;;;;;;11.08;90.59;101593.54;1696771;83;27447;-82
2022/10/09 08:11:18;;;;;;;12.23;7.50;;;;;;;11.12;90.59;101595.73;1636495;86;25834;-82
2022/10/09 08:13:47;;;;;;;11.50;7.87;;;;;;;11.12;90.28;101609.14;1691793;84;25835;-81
2022/10/09 08:16:15;;;;;;;9.63;7.65;;;;;;;11.13;90.69;101604.13;1688516;84;26532;-82
2022/10/09 08:18:42;;;;;;;13.75;6.85;;;;;;;11.18;90.93;101607.16;1680809;83;25971;-82
2022/10/09 08:21:13;;;;;;;7.42;6.17;;;;;;;11.19;90.51;101615.52;1685368;84;27401;-81
2022/10/09 08:23:40;;;;;;;13.20;6.72;;;;;;;11.24;90.73;101617.71;1658448;84;25885;-80
2022/10/09 08:26:19;;;;;;;8.13;6.62;;;;;;;11.22;90.08;101622.41;1687975;83;25899;-80
2022/10/09 08:28:51;;;;;;;11.60;7.37;;;;;;;11.20;89.89;101623.92;1690871;83;25819;-83
2022/10/09 08:31:18;;;;;;;9.90;7.33;;;;;;;11.24;90.24;101632.46;1677699;84;25850;-83
2022/10/09 08:33:45;;;;;;;10.50;7.03;;;;;;;11.25;89.66;101623.39;1640957;85;27502;-83
2022/10/09 08:36:17;;;;;;;9.95;8.48;;;;;;;11.28;89.61;101629.78;1677724;84;25865;-84
2022/10/09 08:38:42;;;;;;;9.40;8.18;;;;;;;11.30;89.83;101627.27;1691819;84;25812;-84
2022/10/09 08:41:37;;;;;;;10.30;7.75;;;;;;;11.34;89.72;101634.47;1689347;84;25844;-83
2022/10/09 08:44:12;;;;;;;10.03;8.35;;;;;;;11.35;89.25;101634.83;1628794;87;25830;-84
2022/10/09 08:47:27;;;;;;;12.00;7.75;;;;;;;11.34;89.51;101642.02;1692381;84;27456;-84
2022/10/09 08:50:04;;;;;;;10.78;8.25;;;;;;;11.34;89.14;101642.02;1682327;84;25947;-82
2022/10/09 08:52:48;;;;;;;11.35;7.53;;;;;;;11.35;89.07;101649.58;1675091;84;25956;-82
2022/10/09 08:55:34;;;;;;;12.60;7.50;;;;;;;11.37;88.53;101651.59;1676075;84;26561;-81
2022/10/09 08:58:04;;;;;;;10.68;7.03;;;;;;;11.38;88.83;101649.22;1669424;84;25947;-82
2022/10/09 09:00:39;;;;;;;8.93;7.23;;;;;;;11.38;88.50;101651.41;1687787;84;27458;-82
2022/10/09 09:03:45;;;;;;;7.95;6.17;;;;;;;11.39;88.35;101654.94;1678070;84;25565;-82
2022/10/09 09:06:49;;;;;;;9.15;6.37;;;;;;;11.44;88.28;101656.11;1682963;84;25763;-82
2022/10/09 09:09:43;;;;;;;7.95;5.97;;;;;;;11.52;89.09;101657.97;1635277;84;26633;-82
2022/10/09 09:12:21;;;;;;;8.50;5.83;;;;;;;11.55;88.15;101658.47;1668227;84;26016;-82
2022/10/09 09:15:08;;;;;;;8.78;6.08;;;;;;;11.62;88.29;101662.66;1676652;84;28283;-82
2022/10/09 09:17:55;;;;;;;8.53;6.92;;;;;;;11.67;88.31;101664.38;1661611;84;26611;-82
2022/10/09 09:20:55;;;;;;;8.93;6.65;;;;;;;11.69;87.58;101662.86;1676994;84;25342;-82
2022/10/09 09:23:29;;;;;;;8.20;6.55;;;;;;;11.72;86.89;101663.88;1690482;84;25981;-81
2022/10/09 09:25:58;;;;;;;9.48;6.55;;;;;;;11.76;86.50;101669.25;1677348;84;26273;-81
2022/10/09 09:28:32;;;;;;;12.65;7.28;;;;;;;11.75;86.07;101669.75;1683936;84;27495;-82
2022/10/09 09:31:16;;;;;;;9.78;7.15;;;;;;;11.77;85.76;101677.13;1685648;84;25819;-82
2022/10/09 09:34:35;;;;;;;11.55;7.33;;;;;;;11.79;85.54;101680.97;1679103;84;25787;-81
2022/10/09 09:37:02;;;;;;;10.63;7.00;;;;;;;11.79;85.22;101683.16;1680976;84;26240;-81
2022/10/09 09:39:32;;;;;;;10.23;7.87;;;;;;;11.77;84.91;101688.36;1693012;84;25805;-82
2022/10/09 09:42:10;;;;;;;11.10;7.80;;;;;;;11.75;84.72;101697.93;1686534;84;26959;-82
2022/10/09 09:44:41;;;;;;;14.70;7.85;;;;;;;11.74;84.82;101702.95;1651127;84;26493;-81
2022/10/09 09:47:16;;;;;;;14.23;9.38;;;;;;;11.72;84.34;101696.09;1650449;84;26542;-82
2022/10/09 09:49:58;;;;;;;10.80;7.83;;;;;;;11.70;84.47;101696.23;1649875;84;26540;-82
2022/10/09 09:52:28;;;;;;;12.40;7.60;;;;;;;11.73;84.53;101702.62;1646547;85;25688;-80
2022/10/09 09:54:57;;;;;;;16.07;11.28;;;;;;;11.72;84.08;101697.44;1680720;84;27663;-82
2022/10/09 09:57:38;;;;;;;10.98;6.47;;;;;;;11.73;84.03;101696.41;1677857;84;26135;-81
2022/10/09 10:00:21;;;;;;;14.58;8.55;;;;;;;11.76;83.70;101705.48;1681750;84;26105;-81
2022/10/09 10:02:49;;;;;;;8.03;5.87;;;;;;;11.75;84.03;101707.81;1676562;84;26522;-81
2022/10/09 10:05:26;;;;;;;7.03;5.08;;;;;;;11.79;84.22;101705.13;1648327;84;25836;-82
2022/10/09 10:07:58;;;;;;;26.65;13.13;;;;;;;11.82;85.83;101710.17;1679379;84;27487;-82
2022/10/09 10:10:26;;;;;;;25.37;11.95;;;;;;;11.87;86.45;101709.18;1678933;84;26150;-84
2022/10/09 10:13:00;;;;;;;13.45;6.15;;;;;;;11.94;86.88;101710.16;1684315;84;26509;-83
2022/10/09 10:15:31;;;;;;;11.70;6.15;;;;;;;11.95;86.27;101713.20;1687608;84;25864;-84
2022/10/09 10:18:19;;;;;;;10.10;5.30;;;;;;;11.96;86.55;101713.52;1671135;84;26047;-82
2022/10/09 10:20:59;;;;;;;13.03;7.87;;;;;;;11.98;86.38;101709.66;1669631;84;28277;-82
2022/10/09 10:23:41;;;;;;;17.55;8.48;;;;;;;12.02;86.74;101712.34;1680590;84;25561;-82
2022/10/09 10:26:36;;;;;;;;;;;;;;;12.08;86.85;101717.56;1691442;84;25827;-82
2022/10/09 10:29:24;;;;;;;9.68;5.33;;;;;;;12.07;86.08;101719.89;1687960;84;25903;-82
2022/10/09 10:32:05;;;;;;;7.05;4.97;;;;;;;12.06;85.76;101723.61;1691774;84;25764;-82
2022/10/09 10:34:45;;;;;;;16.20;8.43;;;;;;;12.05;85.34;101726.78;1688733;84;27449;-83
2022/10/09 10:37:39;;;;;;;19.65;9.55;;;;;;;12.06;85.69;101727.63;1688763;84;26009;-83
2022/10/09 10:40:26;;;;;;;32.98;14.15;;;;;;;12.06;84.85;101729.79;1684302;84;25838;-82
2022/10/09 10:43:07;;;;;;;9.45;6.90;;;;;;;12.10;84.56;101732.47;1691335;84;26969;-82
2022/10/09 10:46:00;;;;;;;25.72;13.55;;;;;;;12.12;84.15;101727.80;1683424;84;25779;-82
2022/10/09 10:48:31;;;;;;;17.45;8.15;;;;;;;12.18;84.28;101732.98;1686555;84;27461;-82
2022/10/09 10:51:12;;;;;;;21.77;12.07;;;;;;;12.27;84.50;101726.07;1686873;84;25886;-82
2022/10/09 10:54:06;;;;;;;15.90;10.90;;;;;;;12.35;84.26;101726.58;1658457;84;25881;-81
2022/10/09 10:56:38;;;;;;;14.70;9.08;;;;;;;12.39;83.48;101730.59;1682733;84;25996;-82
2022/10/09 10:59:12;;;;;;;15.20;9.20;;;;;;;12.38;82.68;101724.38;1672679;84;25927;-82
2022/10/09 11:01:51;;;;;;;14.05;9.20;;;;;;;12.42;82.74;101738.83;1678963;83;27469;-82
2022/10/09 11:04:44;;;;;;;10.03;6.87;;;;;;;12.46;82.42;101732.09;1674182;84;26234;-82
2022/10/09 11:08:03;;;;;;;11.10;7.70;;;;;;;12.48;81.66;101731.42;1653561;85;25855;-81
2022/10/09 11:10:54;;;;;;;7.58;5.78;;;;;;;12.50;81.64;101732.08;1676385;84;26260;-82
2022/10/09 11:13:39;;;;;;;;;;;;;;;12.53;81.82;101732.56;1674795;84;25898;-82
2022/10/09 11:16:46;;;;;;;12.00;5.85;;;;;;;12.56;81.39;101736.27;1693326;84;27416;-82
2022/10/09 11:19:48;;;;;;;7.12;5.05;;;;;;;12.59;82.12;101729.72;1677065;84;26058;-82
2022/10/09 11:22:49;;;;;;;9.45;6.40;;;;;;;12.68;81.83;101736.75;1689135;84;25731;-82
2022/10/09 11:25:54;;;;;;;18.12;7.50;;;;;;;12.69;80.87;101737.06;1642207;86;25954;-83
2022/10/09 11:28:35;;;;;;;10.93;7.83;;;;;;;12.66;80.96;101729.37;1695258;84;25915;-85
2022/10/09 11:31:33;;;;;;;12.60;8.33;;;;;;;12.71;81.40;101723.79;1683853;84;28254;-81
2022/10/09 11:34:11;;;;;;;10.65;6.40;;;;;;;12.78;81.53;101725.28;1677982;84;26481;-79
2022/10/09 11:36:43;;;;;;;9.35;7.25;;;;;;;12.85;81.21;101720.36;1683688;84;25555;-80
2022/10/09 11:39:26;;;;;;;16.55;10.93;;;;;;;12.87;80.77;101723.72;1688542;84;25906;-79
2022/10/09 11:41:53;;;;;;;12.80;9.30;;;;;;;12.89;80.66;101720.38;1655597;84;26524;-78
2022/10/09 11:44:50;;;;;;;10.03;7.03;;;;;;;12.89;80.47;101723.56;1685022;84;28445;-81
2022/10/09 11:47:34;;;;;;;11.60;8.83;;;;;;;12.94;80.32;101717.13;1630810;86;25915;-85
2022/10/09 11:50:27;;;;;;;10.20;6.58;;;;;;;12.98;80.25;101719.30;1671993;84;25825;-84